METAR EFET 171050Z AUTO 23007KT CAVOK M06/M07 Q0961=
METAR EFHA 171120Z 24013KT 9999 BKN019 04/01 Q0979=
METAR EFHK 171120Z 23019G29KT 9999 -RA FEW018 BKN21 05/03 Q0986 NOSIG=
METAR EFIV 171120Z 24011KT 9999 FEW013 SCT041 M02/M04 Q0959=
METAR EFJO 171050Z AUTO 25011KT 210V280 9999 BKN022 03/M00 Q0976=
METAR EFJY 171050Z 22009KT 190V270 9999 BKN016 BKN035 03/00 Q0977=
METAR EFKE 171050Z 24008KT CAVOK 00/M01 Q0968=
METAR EFKI 171120Z 24014KT 210V270 9999 -SHRA OVC018 02/M01 Q0971=
METAR EFKK 171050Z AUTO 21011KT 190V250 9999 FEW018 04/M01 Q0973=
METAR EFKS 171120Z 26010KT 220V290 9999 BKN010 00/M02 Q0965=
METAR EFKT 171120Z 29003KT 220V030 CAVOK M02/M04 Q0962=
METAR EFKU 171120Z 25017KT 9999 BKN021 BKN120 04/M01 Q0975=
METAR EFLP 171120Z 24014G27KT 210V270 9999 -SHRA BKN014 BKN046 04/02 Q0983=
METAR EFMA 171050Z AUTO 23011KT 200V270 9999 BKN036 07/01 Q0985=
METAR EFMI 171050Z AUTO 23011KT 170V280 9000 -SHRA OVC013 03/02 Q0980=
METAR EFOU 171050Z AUTO 24013KT 9999 BKN011 02/01 Q0970=
METAR EFPO 171050Z AUTO 22019G31KT 190V250 9999 SCT038 06/01 Q0980=
METAR EFRO 171120Z 23010KT 9999 FEW009 M01/M03 Q0965=
METAR EFSA 171050Z AUTO 24013KT 210V280 9999 OVC013 03/01 Q0979=
METAR EFSI 171050Z AUTO 22010G19KT 140V300 9999 SCT022 BKN027 OVC031 05/00 Q0976=
METAR EFTP 171120Z 23017KT 9999 BKN023 05/01 Q0981=
METAR EFTU 171050Z AUTO 23016KT 9999 OVC017 05/02 Q0984=
METAR EFUT 171120Z 24016KT 9999 -SHRA BKN015 04/02 Q0984=
METAR EFVA 171050Z AUTO 23015KT CAVOK 05/01 Q0975=
SPECI EFLA 171124Z AUTO 23015G25KT 200V260 9999 -RA BKN010/// OVC014/// 03/02 Q0982=
ILHF 171100Z AUTO 22012G22KT 9999 OVC017 05/03 Q0986=
ILHK 171100Z AUTO 24020G32KT 9999 OVC020 05/04 Q0986=
ILIK 171110Z AUTO 23013G26KT 9999 OVC017 05/02 Q0985=
ILJY 171100Z AUTO 24007KT 9999 -SHRA FEW016 BKN022 OVC028 04/00 Q0977=
ILKA 171100Z AUTO 23011KT 9999 BKN023 04/01 Q0975=
ILKM 171100Z AUTO 26007KT CAVOK M01/M02 Q0964=
ILMI 171100Z AUTO 24009KT 9999 -RA OVC013 03/02 Q0980=
ILPR 171100Z AUTO 22014KT 9999 -RA OVC014 05/03 Q0985=
ILPU 171100Z AUTO 23010KT 9999 SCT009 BKN012 01/00 Q0969=
ILQA 171100Z AUTO 24011G22KT 9999 SCT009 BKN097 M01/// Q0963=
ILQB 171100Z AUTO 27013KT 9999 -SHSN SCT009 BKN030 M02/M02 Q0957=
ILQC 171100Z AUTO 15003KT CAVOK M03/M04 Q0962=
ILQD 171100Z AUTO /////KT 9999 BKN047 M02/M03 Q////=
ILQE 171100Z AUTO 16004KT CAVOK M02/M03 Q0965=
ILQH 171100Z AUTO 21022KT CAVOK 01/00 Q0970=
ILQI 171100Z AUTO 26013KT //// // NCD M03/M04 Q0961=
ILQJ 171100Z AUTO 25010KT CAVOK 01/00 Q0968=
ILQK 171100Z AUTO 27021KT 5000 BR ////// M04/M06 Q0959=
ILQL 171100Z AUTO 23016KT 9999 ////// 02/00 Q0970=
ILQM 171100Z AUTO 25007KT CAVOK M05/M05 Q////=
ILQN 171100Z AUTO 29006KT 9999 SHUP OVC029 00/M03 Q0960=
ILQO 171100Z AUTO 25008KT CAVOK M03/M03 Q0963=
ILQP 171100Z AUTO 21024KT 9999 ////// 01/00 Q0971=
ILQQ 171100Z AUTO 25005KT CAVOK 01/M02 Q0967=
ILQR 171100Z AUTO 23006KT CAVOK 01/M01 Q0966=
ILQS 171100Z AUTO 25007G18KT 3900 -SN FEW004 SCT006 BKN008 01/00 Q0969=
ILQT 171100Z AUTO 18004KT CAVOK M05/M06 Q0960=
ILQU 171100Z AUTO 30011KT 9999 SHUP FEW042 BKN063 M01/M03 Q0956=
ILQV 171100Z AUTO 27006KT 9999 BKN037 M03/M03 Q0960=
ILQX 171100Z AUTO 22008G18KT 9999 FEW010 02/01 Q0970=
ILQY 171100Z AUTO 24017KT 9999 OVC012 02/00 Q0971=
ILRO 171100Z AUTO /////KT 9999 ////// M02/M02 Q////=
ILRU 171100Z AUTO 23008KT 9999 SCT007 BKN044 M00/M00 Q0967=
ILWA 171100Z AUTO 23021G32KT 9999 OVC014 04/03 Q0985=
ILWD 171100Z AUTO /////KT //// // OVC012 03/02 Q////=
ILWE 171100Z AUTO 27010KT 9999 OVC033 M04/M04 Q0959=
ILWF 171100Z AUTO 24008KT 9999 BKN009 01/M01 Q////=
ILWG 171110Z AUTO /////KT 9999 OVC018 04/01 Q0979=
ILXA 171100Z AUTO /////KT 9999 OVC022 04/M00 Q0977=
ILXB 171100Z AUTO 22012G24KT 9999 BKN037 06/02 Q0980=
ILXC 171100Z AUTO 22012G22KT 9999 BKN016 04/02 Q0978=
ILXD 171100Z AUTO /////KT 9999 OVC021 02/M01 Q0976=
ILXE 171100Z AUTO 24012G22KT 9999 BKN015 OVC018 02/M01 Q0973=
ILXF 171100Z AUTO 20027KT 9999 FEW034 SCT086 04/02 Q0981=
ILXG 171110Z AUTO 19025KT 9999 FEW036 04/02 Q0977=
ILXI 171100Z AUTO 24016KT 9999 FEW013 SCT017 BKN020 02/00 Q0975=
ILXJ 171110Z AUTO 24012KT 9999 OVC017 02/M01 Q0971=
ILXK 171100Z AUTO 24011KT 9999 FEW010 BKN015 BKN019 02/00 Q0970=
ILXL 171100Z AUTO /////KT 9999 BKN021 //////CB 03/M01 Q0975=
ILXM 171100Z AUTO /////KT 9999 FEW022 04/M01 Q////=
ILXN 171100Z AUTO 22012G24KT 9999 SCT018 BKN021 //////CB 05/01 Q0979=
ILXO 171100Z AUTO 22013KT 9999 SCT016 BKN020 OVC030 04/02 Q0977=
ILXP 171100Z AUTO 21024KT 9999 SCT038 04/02 Q0980=
ILXQ 171110Z AUTO /////KT 9999 -RA OVC014 04/02 Q////=
ILXR 171100Z AUTO 23010G22KT 9999 FEW021 SCT025 03/M01 Q0974=
ILXS 171100Z AUTO 24011KT 9999 BKN018 BKN062 03/M00 Q0971=
ILXT 171100Z AUTO 22020KT CAVOK 02/M00 Q0972=
ILXU 171100Z AUTO /////KT 9999 OVC011 03/01 Q0980=
ILXV 171100Z AUTO 24007KT 9999 BKN026 04/M01 Q0975=
ILXW 171100Z AUTO 23013G23KT 9999 BKN017 02/M01 Q0973=
ILXX 171100Z AUTO 22015G27KT CAVOK 05/01 Q0975=
ILXY 171100Z AUTO 24009KT 9999 SCT021 BKN025 04/M00 Q0975=
ILXZ 171110Z AUTO 24013KT 9999 -SHRA FEW010 BKN014 BKN019 03/02 Q////=
ILYL 171100Z AUTO 22011KT CAVOK 02/M00 Q0973=
ILZA 171100Z AUTO 24031KT 9999 OVC016 05/03 Q0987=
ILZB 171100Z AUTO 24016G26KT 9999 BKN037 07/01 Q0984=
ILZC 171100Z AUTO /////KT 9999 -SNRA BKN015 04/02 Q0982=
ILZD 171100Z AUTO 22018G28KT 9999 FEW012 BKN019 OVC026 05/03 Q0986=
ILZE 171100Z AUTO 25016G26KT 9999 SHUP FEW015 SCT020 BKN024 05/03 Q0987=
ILZF 171100Z AUTO 21012G24KT 9999 -SHRA OVC017 04/04 Q0986=
ILZG 171100Z AUTO /////KT 9999 -RA OVC016 04/03 Q0985=
ILZH 171100Z AUTO /////KT 9999 OVC021 05/02 Q0980=
ILZI 171100Z AUTO 23019KT CAVOK 05/02 Q0982=
ILZJ 171100Z AUTO 23012G24KT 9999 FEW020 SCT026 BKN030 05/02 Q0983=
ILZK 171100Z AUTO 22023KT CAVOK 06/02 Q0984=
ILZM 171100Z AUTO /////KT 9999 -RA OVC018 04/03 Q0985=
ILZO 171110Z AUTO 24029KT 9999 OVC019 04/02 Q0986=
ILZP 171110Z AUTO 23015KT 9999 BKN027 06/01 Q0982=
ILZQ 171100Z AUTO 24011G24KT 9999 -RA OVC017 04/03 Q0984=
ILZR 171100Z AUTO 23010G23KT 9999 OVC020 06/03 Q0984=
ILZS 171100Z AUTO 25027KT 9999 OVC018 05/03 Q0987=
ILZT 171100Z AUTO 24034KT 9999 FEW018 SCT027 BKN031 05/03 Q0987=
ILZU 171100Z AUTO 23032KT CAVOK 06/03 Q0986=
ILZV 171100Z AUTO 24011KT 9999 FEW016 SCT026 BKN033 05/04 Q0985=
ILZW 171110Z AUTO 24023G35KT 9999 -RA OVC017 04/03 Q0986=
ILZX 171100Z AUTO 23015KT 9999 -RA OVC016 05/03 Q0987=
ILZY 171100Z AUTO 23025KT 9999 BKN038 05/02 Q0985=
ILZZ 171110Z AUTO /////KT 9999 -RA OVC012 04/02 Q0983=